sensor_id;sensor_type;location;lat;lon;timestamp;pressure;altitude;pressure_sealevel;temperature;humidity
56074;BME280;41950;55.840;37.442;2023-02-11T00:00:15;99527.06;;;-1.89;74.50
56074;BME280;41950;55.840;37.442;2023-02-11T00:02:41;99510.69;;;-1.97;74.47
56074;BME280;41950;55.840;37.442;2023-02-11T00:05:07;99562.31;;;-1.72;74.55
56074;BME280;41950;55.840;37.442;2023-02-11T00:07:34;99555.44;;;-1.75;74.48
56074;BME280;41950;55.840;37.442;2023-02-11T00:09:59;99546.56;;;-1.89;74.61
56074;BME280;41950;55.840;37.442;2023-02-11T00:12:29;99558.50;;;-1.87;74.86
56074;BME280;41950;55.840;37.442;2023-02-11T00:14:55;99566.91;;;-1.89;74.98
56074;BME280;41950;55.840;37.442;2023-02-11T00:17:20;99555.66;;;-1.96;75.03
56074;BME280;41950;55.840;37.442;2023-02-11T00:19:50;99555.44;;;-2.03;75.17
56074;BME280;41950;55.840;37.442;2023-02-11T00:22:16;99550.69;;;-2.20;75.88
56074;BME280;41950;55.840;37.442;2023-02-11T00:24:42;99561.63;;;-2.22;76.31
56074;BME280;41950;55.840;37.442;2023-02-11T00:27:07;99563.06;;;-2.30;76.20
56074;BME280;41950;55.840;37.442;2023-02-11T00:29:33;99535.53;;;-2.43;76.33
56074;BME280;41950;55.840;37.442;2023-02-11T00:31:58;99503.50;;;-2.65;76.49
56074;BME280;41950;55.840;37.442;2023-02-11T00:34:33;99570.50;;;-2.36;76.47
56074;BME280;41950;55.840;37.442;2023-02-11T00:36:59;99520.41;;;-2.66;76.50
56074;BME280;41950;55.840;37.442;2023-02-11T00:39:24;99570.25;;;-2.44;76.69
56074;BME280;41950;55.840;37.442;2023-02-11T00:41:50;99543.31;;;-2.64;76.65
56074;BME280;41950;55.840;37.442;2023-02-11T00:44:16;99561.44;;;-2.54;76.95
56074;BME280;41950;55.840;37.442;2023-02-11T00:46:41;99510.59;;;-2.81;76.89
56074;BME280;41950;55.840;37.442;2023-02-11T00:49:07;99569.88;;;-2.55;77.18
56074;BME280;41950;55.840;37.442;2023-02-11T00:51:33;99568.00;;;-2.60;77.29
56074;BME280;41950;55.840;37.442;2023-02-11T00:53:58;99569.44;;;-2.68;77.44
56074;BME280;41950;55.840;37.442;2023-02-11T00:56:24;99577.16;;;-2.65;77.50
56074;BME280;41950;55.840;37.442;2023-02-11T00:58:50;99570.97;;;-2.73;77.59
56074;BME280;41950;55.840;37.442;2023-02-11T01:01:16;99573.72;;;-2.67;77.49
56074;BME280;41950;55.840;37.442;2023-02-11T01:03:42;99563.22;;;-2.76;77.42
56074;BME280;41950;55.840;37.442;2023-02-11T01:06:08;99567.34;;;-2.80;77.52
56074;BME280;41950;55.840;37.442;2023-02-11T01:08:34;99582.72;;;-2.75;77.56
56074;BME280;41950;55.840;37.442;2023-02-11T01:11:03;99578.25;;;-2.83;77.61
56074;BME280;41950;55.840;37.442;2023-02-11T01:13:31;99576.53;;;-2.84;77.68
56074;BME280;41950;55.840;37.442;2023-02-11T01:15:57;99599.50;;;-2.81;77.67
56074;BME280;41950;55.840;37.442;2023-02-11T01:18:23;99559.97;;;-2.98;77.64
56074;BME280;41950;55.840;37.442;2023-02-11T01:20:50;99557.03;;;-3.08;77.70
56074;BME280;41950;55.840;37.442;2023-02-11T01:23:16;99598.47;;;-2.86;77.69
56074;BME280;41950;55.840;37.442;2023-02-11T01:25:41;99595.03;;;-2.88;77.70
56074;BME280;41950;55.840;37.442;2023-02-11T01:28:15;99590.34;;;-3.01;77.90
56074;BME280;41950;55.840;37.442;2023-02-11T01:30:41;99608.47;;;-2.90;77.78
56074;BME280;41950;55.840;37.442;2023-02-11T01:33:06;99612.69;;;-2.91;77.72
56074;BME280;41950;55.840;37.442;2023-02-11T01:35:32;99614.41;;;-2.90;77.47
56074;BME280;41950;55.840;37.442;2023-02-11T01:37:58;99609.28;;;-2.91;77.52
56074;BME280;41950;55.840;37.442;2023-02-11T01:40:23;99600.59;;;-2.98;77.47
56074;BME280;41950;55.840;37.442;2023-02-11T01:42:49;99602.22;;;-3.00;77.25
56074;BME280;41950;55.840;37.442;2023-02-11T01:45:57;99608.44;;;-2.92;77.20
56074;BME280;41950;55.840;37.442;2023-02-11T01:48:23;99612.63;;;-2.92;77.02
56074;BME280;41950;55.840;37.442;2023-02-11T01:50:55;99591.31;;;-2.97;76.58
56074;BME280;41950;55.840;37.442;2023-02-11T01:53:24;99615.16;;;-2.68;76.21
56074;BME280;41950;55.840;37.442;2023-02-11T01:56:09;99604.50;;;-2.58;75.65
56074;BME280;41950;55.840;37.442;2023-02-11T01:58:58;99610.69;;;-2.50;75.48
56074;BME280;41950;55.840;37.442;2023-02-11T02:01:27;99580.81;;;-2.57;75.11
56074;BME280;41950;55.840;37.442;2023-02-11T02:03:58;99586.16;;;-2.50;74.96
56074;BME280;41950;55.840;37.442;2023-02-11T02:06:36;99596.47;;;-2.45;74.50
56074;BME280;41950;55.840;37.442;2023-02-11T02:09:07;99598.31;;;-2.41;74.50
56074;BME280;41950;55.840;37.442;2023-02-11T02:11:34;99607.66;;;-2.40;74.07
56074;BME280;41950;55.840;37.442;2023-02-11T02:13:59;99567.34;;;-2.55;73.85
56074;BME280;41950;55.840;37.442;2023-02-11T02:16:31;99612.28;;;-2.28;73.69
56074;BME280;41950;55.840;37.442;2023-02-11T02:19:50;99610.72;;;-2.23;73.25
56074;BME280;41950;55.840;37.442;2023-02-11T02:38:37;99592.03;;;-2.25;72.47
56074;BME280;41950;55.840;37.442;2023-02-11T02:41:09;99615.00;;;-2.22;72.14
56074;BME280;41950;55.840;37.442;2023-02-11T02:43:41;99570.94;;;-2.48;72.50
56074;BME280;41950;55.840;37.442;2023-02-11T02:46:20;99609.97;;;-2.21;72.40
56074;BME280;41950;55.840;37.442;2023-02-11T02:48:48;99595.53;;;-2.22;72.54
56074;BME280;41950;55.840;37.442;2023-02-11T02:57:06;99590.25;;;-2.28;72.39
56074;BME280;41950;55.840;37.442;2023-02-11T03:02:29;99599.47;;;-2.31;72.81
56074;BME280;41950;55.840;37.442;2023-02-11T03:07:52;99594.03;;;-2.42;73.26
56074;BME280;41950;55.840;37.442;2023-02-11T03:10:24;99587.06;;;-2.47;73.63
56074;BME280;41950;55.840;37.442;2023-02-11T03:12:52;99597.06;;;-2.52;73.55
56074;BME280;41950;55.840;37.442;2023-02-11T03:15:20;99582.03;;;-2.71;73.69
56074;BME280;41950;55.840;37.442;2023-02-11T03:17:49;99525.00;;;-3.05;73.70
56074;BME280;41950;55.840;37.442;2023-02-11T03:20:17;99604.19;;;-2.67;74.00
56074;BME280;41950;55.840;37.442;2023-02-11T03:22:57;99603.28;;;-2.69;74.22
56074;BME280;41950;55.840;37.442;2023-02-11T03:25:34;99607.25;;;-2.76;74.25
56074;BME280;41950;55.840;37.442;2023-02-11T03:31:09;99582.47;;;-2.83;74.20
56074;BME280;41950;55.840;37.442;2023-02-11T03:33:52;99594.50;;;-2.77;74.16
56074;BME280;41950;55.840;37.442;2023-02-11T03:36:25;99599.69;;;-2.74;74.19
56074;BME280;41950;55.840;37.442;2023-02-11T03:38:55;99512.34;;;-3.29;73.80
56074;BME280;41950;55.840;37.442;2023-02-11T03:41:23;99560.38;;;-2.86;73.78
56074;BME280;41950;55.840;37.442;2023-02-11T03:43:52;99547.03;;;-3.04;73.86
56074;BME280;41950;55.840;37.442;2023-02-11T03:46:26;99561.69;;;-2.97;73.92
56074;BME280;41950;55.840;37.442;2023-02-11T03:48:56;99569.53;;;-2.91;73.77
56074;BME280;41950;55.840;37.442;2023-02-11T03:51:24;99591.78;;;-2.84;73.85
56074;BME280;41950;55.840;37.442;2023-02-11T03:53:54;99524.34;;;-3.25;73.94
56074;BME280;41950;55.840;37.442;2023-02-11T03:56:24;99593.09;;;-2.95;73.88
56074;BME280;41950;55.840;37.442;2023-02-11T03:58:51;99585.13;;;-3.04;74.41
56074;BME280;41950;55.840;37.442;2023-02-11T04:01:17;99576.19;;;-3.18;74.16
56074;BME280;41950;55.840;37.442;2023-02-11T04:03:42;99557.97;;;-3.30;74.22
56074;BME280;41950;55.840;37.442;2023-02-11T04:06:08;99584.59;;;-3.19;74.61
56074;BME280;41950;55.840;37.442;2023-02-11T04:08:34;99594.53;;;-3.25;74.73
56074;BME280;41950;55.840;37.442;2023-02-11T04:10:59;99549.50;;;-3.55;74.76
56074;BME280;41950;55.840;37.442;2023-02-11T04:13:25;99585.72;;;-3.35;74.76
56074;BME280;41950;55.840;37.442;2023-02-11T04:15:51;99573.47;;;-3.47;74.62
56074;BME280;41950;55.840;37.442;2023-02-11T04:18:16;99582.97;;;-3.41;74.75
56074;BME280;41950;55.840;37.442;2023-02-11T04:20:42;99578.63;;;-3.44;74.65
56074;BME280;41950;55.840;37.442;2023-02-11T04:23:08;99568.06;;;-3.56;74.80
56074;BME280;41950;55.840;37.442;2023-02-11T04:25:34;99521.25;;;-3.86;75.04
56074;BME280;41950;55.840;37.442;2023-02-11T04:28:00;99537.38;;;-3.84;75.14
56074;BME280;41950;55.840;37.442;2023-02-11T04:30:26;99568.44;;;-3.67;75.42
56074;BME280;41950;55.840;37.442;2023-02-11T04:32:51;99577.66;;;-3.69;75.38
56074;BME280;41950;55.840;37.442;2023-02-11T04:35:19;99531.06;;;-3.95;75.41
56074;BME280;41950;55.840;37.442;2023-02-11T04:37:44;99565.75;;;-3.72;75.36
56074;BME280;41950;55.840;37.442;2023-02-11T04:40:10;99543.03;;;-3.91;75.58
56074;BME280;41950;55.840;37.442;2023-02-11T04:42:36;99573.13;;;-3.78;75.77
56074;BME280;41950;55.840;37.442;2023-02-11T04:45:02;99574.84;;;-3.77;75.53
56074;BME280;41950;55.840;37.442;2023-02-11T04:47:28;99569.09;;;-3.73;75.67
56074;BME280;41950;55.840;37.442;2023-02-11T04:49:54;99572.81;;;-3.63;75.21
56074;BME280;41950;55.840;37.442;2023-02-11T04:52:20;99575.56;;;-3.57;75.13
56074;BME280;41950;55.840;37.442;2023-02-11T04:54:45;99515.72;;;-3.98;75.24
56074;BME280;41950;55.840;37.442;2023-02-11T04:57:11;99556.34;;;-3.75;75.39
56074;BME280;41950;55.840;37.442;2023-02-11T04:59:37;99510.28;;;-4.09;75.59
56074;BME280;41950;55.840;37.442;2023-02-11T05:02:02;99530.13;;;-3.97;75.62
56074;BME280;41950;55.840;37.442;2023-02-11T05:04:28;99574.06;;;-3.76;75.78
56074;BME280;41950;55.840;37.442;2023-02-11T05:06:54;99534.00;;;-4.07;76.04
56074;BME280;41950;55.840;37.442;2023-02-11T05:09:20;99573.06;;;-3.80;75.81
56074;BME280;41950;55.840;37.442;2023-02-11T05:11:46;99515.03;;;-4.17;75.75
56074;BME280;41950;55.840;37.442;2023-02-11T05:14:11;99505.53;;;-4.22;75.70
56074;BME280;41950;55.840;37.442;2023-02-11T05:16:37;99583.56;;;-3.70;75.62
56074;BME280;41950;55.840;37.442;2023-02-11T05:19:03;99563.22;;;-3.72;75.33
56074;BME280;41950;55.840;37.442;2023-02-11T05:21:29;99547.13;;;-3.72;75.12
56074;BME280;41950;55.840;37.442;2023-02-11T05:23:55;99589.00;;;-3.37;74.85
56074;BME280;41950;55.840;37.442;2023-02-11T05:26:20;99582.53;;;-3.29;74.54
56074;BME280;41950;55.840;37.442;2023-02-11T05:28:46;99584.38;;;-3.25;74.52
56074;BME280;41950;55.840;37.442;2023-02-11T05:31:12;99586.31;;;-3.18;73.99
56074;BME280;41950;55.840;37.442;2023-02-11T05:33:39;99573.63;;;-3.18;74.07
56074;BME280;41950;55.840;37.442;2023-02-11T05:36:08;99582.28;;;-3.13;73.82
56074;BME280;41950;55.840;37.442;2023-02-11T05:38:34;99567.91;;;-3.13;73.78
56074;BME280;41950;55.840;37.442;2023-02-11T05:41:00;99577.41;;;-3.07;73.63
56074;BME280;41950;55.840;37.442;2023-02-11T05:43:26;99568.88;;;-3.09;73.36
56074;BME280;41950;55.840;37.442;2023-02-11T05:45:52;99531.25;;;-3.21;73.35
56074;BME280;41950;55.840;37.442;2023-02-11T05:48:18;99545.31;;;-3.05;73.26
56074;BME280;41950;55.840;37.442;2023-02-11T05:50:45;99553.28;;;-2.96;72.92
56074;BME280;41950;55.840;37.442;2023-02-11T05:53:11;99567.84;;;-2.90;72.70
56074;BME280;41950;55.840;37.442;2023-02-11T05:55:36;99538.56;;;-3.04;72.78
56074;BME280;41950;55.840;37.442;2023-02-11T05:58:03;99560.34;;;-2.87;72.63
56074;BME280;41950;55.840;37.442;2023-02-11T06:00:28;99558.34;;;-2.96;72.55
56074;BME280;41950;55.840;37.442;2023-02-11T06:02:54;99569.13;;;-2.77;72.38
56074;BME280;41950;55.840;37.442;2023-02-11T06:05:20;99550.13;;;-2.89;72.42
56074;BME280;41950;55.840;37.442;2023-02-11T06:07:45;99573.72;;;-2.67;72.31
56074;BME280;41950;55.840;37.442;2023-02-11T06:10:11;99575.63;;;-2.60;72.18
56074;BME280;41950;55.840;37.442;2023-02-11T06:12:38;99551.03;;;-2.61;71.55
56074;BME280;41950;55.840;37.442;2023-02-11T06:15:04;99537.88;;;-2.75;71.63
56074;BME280;41950;55.840;37.442;2023-02-11T06:17:31;99570.91;;;-2.50;71.70
56074;BME280;41950;55.840;37.442;2023-02-11T06:20:01;99538.06;;;-2.70;71.43
56074;BME280;41950;55.840;37.442;2023-02-11T06:22:30;99566.28;;;-2.61;71.45
56074;BME280;41950;55.840;37.442;2023-02-11T06:24:55;99566.28;;;-2.61;71.68
56074;BME280;41950;55.840;37.442;2023-02-11T06:27:21;99558.91;;;-2.54;71.92
56074;BME280;41950;55.840;37.442;2023-02-11T06:29:47;99566.00;;;-2.45;71.61
56074;BME280;41950;55.840;37.442;2023-02-11T06:32:13;99559.31;;;-2.41;71.57
56074;BME280;41950;55.840;37.442;2023-02-11T06:34:39;99530.81;;;-2.58;71.08
56074;BME280;41950;55.840;37.442;2023-02-11T06:37:04;99555.91;;;-2.42;71.33
56074;BME280;41950;55.840;37.442;2023-02-11T06:39:30;99571.22;;;-2.40;71.25
56074;BME280;41950;55.840;37.442;2023-02-11T06:41:55;99552.97;;;-2.54;71.21
56074;BME280;41950;55.840;37.442;2023-02-11T06:44:21;99533.78;;;-2.71;71.17
56074;BME280;41950;55.840;37.442;2023-02-11T06:46:47;99536.63;;;-2.62;71.45
56074;BME280;41950;55.840;37.442;2023-02-11T06:49:13;99551.56;;;-2.46;70.82
56074;BME280;41950;55.840;37.442;2023-02-11T06:51:39;99574.44;;;-2.46;71.07
56074;BME280;41950;55.840;37.442;2023-02-11T06:54:05;99566.03;;;-2.43;71.70
56074;BME280;41950;55.840;37.442;2023-02-11T06:56:31;99563.69;;;-2.37;71.28
56074;BME280;41950;55.840;37.442;2023-02-11T06:58:58;99538.22;;;-2.39;71.18
56074;BME280;41950;55.840;37.442;2023-02-11T07:01:25;99569.41;;;-2.17;70.85
56074;BME280;41950;55.840;37.442;2023-02-11T07:03:52;99556.59;;;-2.21;70.72
56074;BME280;41950;55.840;37.442;2023-02-11T07:06:23;99568.09;;;-2.05;70.56
56074;BME280;41950;55.840;37.442;2023-02-11T07:08:51;99568.97;;;-2.04;70.55
56074;BME280;41950;55.840;37.442;2023-02-11T07:11:27;99559.69;;;-2.02;70.29
56074;BME280;41950;55.840;37.442;2023-02-11T07:13:58;99547.13;;;-1.98;70.40
56074;BME280;41950;55.840;37.442;2023-02-11T07:16:24;99525.81;;;-2.01;70.23
56074;BME280;41950;55.840;37.442;2023-02-11T07:18:49;99556.19;;;-1.79;69.79
56074;BME280;41950;55.840;37.442;2023-02-11T07:21:18;99560.28;;;-1.84;69.99
56074;BME280;41950;55.840;37.442;2023-02-11T07:23:45;99550.19;;;-1.81;70.27
56074;BME280;41950;55.840;37.442;2023-02-11T07:26:17;99556.53;;;-1.67;70.10
56074;BME280;41950;55.840;37.442;2023-02-11T07:28:44;99549.63;;;-1.71;69.20
56074;BME280;41950;55.840;37.442;2023-02-11T07:31:15;99512.03;;;-2.09;69.69
56074;BME280;41950;55.840;37.442;2023-02-11T07:33:42;99545.69;;;-1.90;70.18
56074;BME280;41950;55.840;37.442;2023-02-11T07:36:09;99546.81;;;-1.80;70.08
56074;BME280;41950;55.840;37.442;2023-02-11T07:38:35;99546.97;;;-1.75;69.89
56074;BME280;41950;55.840;37.442;2023-02-11T07:41:10;99530.19;;;-1.69;69.44
56074;BME280;41950;55.840;37.442;2023-02-11T07:43:36;99540.56;;;-1.63;69.39
56074;BME280;41950;55.840;37.442;2023-02-11T07:46:04;99522.72;;;-1.64;69.19
56074;BME280;41950;55.840;37.442;2023-02-11T07:48:30;99527.94;;;-1.60;69.56
56074;BME280;41950;55.840;37.442;2023-02-11T07:51:04;99504.13;;;-1.62;68.88
56074;BME280;41950;55.840;37.442;2023-02-11T07:53:30;99535.75;;;-1.52;68.63
56074;BME280;41950;55.840;37.442;2023-02-11T07:55:56;99524.47;;;-1.62;68.48
56074;BME280;41950;55.840;37.442;2023-02-11T07:58:21;99497.34;;;-1.91;68.62
56074;BME280;41950;55.840;37.442;2023-02-11T08:00:47;99531.69;;;-1.75;69.09
56074;BME280;41950;55.840;37.442;2023-02-11T08:03:13;99533.19;;;-1.82;68.45
56074;BME280;41950;55.840;37.442;2023-02-11T08:05:38;99536.56;;;-1.83;69.03
56074;BME280;41950;55.840;37.442;2023-02-11T08:08:04;99501.78;;;-1.84;68.85
56074;BME280;41950;55.840;37.442;2023-02-11T08:10:30;99495.88;;;-1.83;68.47
56074;BME280;41950;55.840;37.442;2023-02-11T08:12:55;99522.53;;;-1.69;67.71
56074;BME280;41950;55.840;37.442;2023-02-11T08:15:21;99526.66;;;-1.74;67.85
56074;BME280;41950;55.840;37.442;2023-02-11T08:17:47;99512.13;;;-1.78;67.87
56074;BME280;41950;55.840;37.442;2023-02-11T08:20:12;99473.63;;;-1.90;67.84
56074;BME280;41950;55.840;37.442;2023-02-11T08:22:38;99517.09;;;-1.52;67.29
56074;BME280;41950;55.840;37.442;2023-02-11T08:25:04;99509.22;;;-1.30;67.17
56074;BME280;41950;55.840;37.442;2023-02-11T08:27:30;99517.72;;;-1.30;66.72
56074;BME280;41950;55.840;37.442;2023-02-11T08:29:55;99502.66;;;-1.22;66.54
56074;BME280;41950;55.840;37.442;2023-02-11T08:32:21;99479.75;;;-1.22;65.94
56074;BME280;41950;55.840;37.442;2023-02-11T08:34:50;99487.59;;;-1.13;65.67
56074;BME280;41950;55.840;37.442;2023-02-11T08:37:17;99487.53;;;-1.16;65.33
56074;BME280;41950;55.840;37.442;2023-02-11T08:39:43;99481.47;;;-1.21;65.74
56074;BME280;41950;55.840;37.442;2023-02-11T08:42:12;99477.34;;;-1.16;65.55
56074;BME280;41950;55.840;37.442;2023-02-11T08:44:41;99482.66;;;-1.08;65.55
56074;BME280;41950;55.840;37.442;2023-02-11T08:47:06;99476.72;;;-1.09;65.29
56074;BME280;41950;55.840;37.442;2023-02-11T08:49:32;99476.56;;;-1.13;65.39
56074;BME280;41950;55.840;37.442;2023-02-11T08:51:59;99466.97;;;-1.23;65.75
56074;BME280;41950;55.840;37.442;2023-02-11T08:54:29;99459.06;;;-1.34;65.82
56074;BME280;41950;55.840;37.442;2023-02-11T08:56:55;99445.75;;;-1.56;66.09
56074;BME280;41950;55.840;37.442;2023-02-11T08:59:21;99448.25;;;-1.57;66.82
56074;BME280;41950;55.840;37.442;2023-02-11T09:01:47;99417.00;;;-1.51;66.86
56074;BME280;41950;55.840;37.442;2023-02-11T09:04:13;99427.03;;;-1.26;66.57
56074;BME280;41950;55.840;37.442;2023-02-11T09:06:39;99415.28;;;-1.19;66.36
56074;BME280;41950;55.840;37.442;2023-02-11T09:09:05;99406.19;;;-1.10;66.21
56074;BME280;41950;55.840;37.442;2023-02-11T09:11:33;99402.84;;;-1.09;66.04
56074;BME280;41950;55.840;37.442;2023-02-11T09:14:01;99397.41;;;-1.22;66.36
56074;BME280;41950;55.840;37.442;2023-02-11T09:16:29;99381.94;;;-1.30;66.46
56074;BME280;41950;55.840;37.442;2023-02-11T09:18:57;99389.56;;;-1.30;66.88
56074;BME280;41950;55.840;37.442;2023-02-11T09:21:23;99382.00;;;-1.27;67.19
56074;BME280;41950;55.840;37.442;2023-02-11T09:23:49;99355.41;;;-1.38;67.03
56074;BME280;41950;55.840;37.442;2023-02-11T09:26:22;99368.53;;;-1.23;67.00
56074;BME280;41950;55.840;37.442;2023-02-11T09:28:49;99360.78;;;-1.28;67.13
56074;BME280;41950;55.840;37.442;2023-02-11T09:31:18;99355.03;;;-1.19;67.38
56074;BME280;41950;55.840;37.442;2023-02-11T09:33:46;99355.22;;;-1.11;67.33
56074;BME280;41950;55.840;37.442;2023-02-11T09:36:23;99344.78;;;-1.22;67.03
56074;BME280;41950;55.840;37.442;2023-02-11T09:38:50;99329.41;;;-1.27;67.34
56074;BME280;41950;55.840;37.442;2023-02-11T09:41:38;99349.75;;;-1.28;67.21
56074;BME280;41950;55.840;37.442;2023-02-11T09:44:07;99333.97;;;-1.48;67.94
56074;BME280;41950;55.840;37.442;2023-02-11T09:46:40;99324.81;;;-1.40;68.07
56074;BME280;41950;55.840;37.442;2023-02-11T09:49:16;99342.16;;;-1.25;67.82
56074;BME280;41950;55.840;37.442;2023-02-11T09:51:51;99343.97;;;-1.21;67.91
56074;BME280;41950;55.840;37.442;2023-02-11T09:54:45;99333.81;;;-1.19;67.54
56074;BME280;41950;55.840;37.442;2023-02-11T09:57:15;99304.28;;;-1.47;67.99
56074;BME280;41950;55.840;37.442;2023-02-11T09:59:41;99325.69;;;-1.39;68.40
56074;BME280;41950;55.840;37.442;2023-02-11T10:16:02;99312.81;;;-1.45;69.51
56074;BME280;41950;55.840;37.442;2023-02-11T10:21:31;99298.31;;;-1.49;69.76
56074;BME280;41950;55.840;37.442;2023-02-11T10:24:03;99285.66;;;-1.46;69.94
56074;BME280;41950;55.840;37.442;2023-02-11T10:26:35;99292.47;;;-1.45;69.74
56074;BME280;41950;55.840;37.442;2023-02-11T10:29:09;99272.81;;;-1.51;69.60
56074;BME280;41950;55.840;37.442;2023-02-11T10:31:42;99262.53;;;-1.56;69.91
56074;BME280;41950;55.840;37.442;2023-02-11T10:34:11;99263.47;;;-1.52;69.92
56074;BME280;41950;55.840;37.442;2023-02-11T10:36:41;99273.03;;;-1.42;69.96
56074;BME280;41950;55.840;37.442;2023-02-11T10:39:18;99262.19;;;-1.35;69.75
56074;BME280;41950;55.840;37.442;2023-02-11T10:47:02;99242.38;;;-1.46;69.72
56074;BME280;41950;55.840;37.442;2023-02-11T10:49:36;99240.88;;;-1.38;69.84
56074;BME280;41950;55.840;37.442;2023-02-11T10:52:23;99225.88;;;-1.26;69.49
56074;BME280;41950;55.840;37.442;2023-02-11T11:00:39;99229.00;;;-1.00;68.62
56074;BME280;41950;55.840;37.442;2023-02-11T11:03:22;99179.38;;;-1.17;68.31
56074;BME280;41950;55.840;37.442;2023-02-11T11:05:54;99206.00;;;-1.05;67.95
56074;BME280;41950;55.840;37.442;2023-02-11T11:08:21;99214.59;;;-1.00;68.11
56074;BME280;41950;55.840;37.442;2023-02-11T11:11:04;99192.28;;;-1.10;67.95
56074;BME280;41950;55.840;37.442;2023-02-11T11:13:36;99206.97;;;-0.98;67.81
56074;BME280;41950;55.840;37.442;2023-02-11T11:18:40;99171.97;;;-1.08;66.95
56074;BME280;41950;55.840;37.442;2023-02-11T11:23:37;99168.84;;;-0.94;67.43
56074;BME280;41950;55.840;37.442;2023-02-11T11:26:11;99165.38;;;-0.99;66.48
56074;BME280;41950;55.840;37.442;2023-02-11T11:28:57;99160.97;;;-1.06;66.77
56074;BME280;41950;55.840;37.442;2023-02-11T11:33:54;99122.47;;;-1.21;66.75
56074;BME280;41950;55.840;37.442;2023-02-11T11:36:29;99138.91;;;-1.07;66.42
56074;BME280;41950;55.840;37.442;2023-02-11T11:39:00;99104.44;;;-1.32;65.84
56074;BME280;41950;55.840;37.442;2023-02-11T11:41:51;99125.09;;;-1.16;65.69
56074;BME280;41950;55.840;37.442;2023-02-11T11:44:31;99126.84;;;-1.14;66.01
56074;BME280;41950;55.840;37.442;2023-02-11T11:47:15;99119.13;;;-1.17;65.19
56074;BME280;41950;55.840;37.442;2023-02-11T11:55:24;99107.31;;;-1.13;65.06
56074;BME280;41950;55.840;37.442;2023-02-11T11:57:51;99084.88;;;-1.34;65.34
56074;BME280;41950;55.840;37.442;2023-02-11T12:00:25;99114.94;;;-1.15;65.17
56074;BME280;41950;55.840;37.442;2023-02-11T12:03:25;99093.63;;;-1.20;65.25
56074;BME280;41950;55.840;37.442;2023-02-11T12:06:02;99088.34;;;-1.29;65.35
56074;BME280;41950;55.840;37.442;2023-02-11T12:11:28;99085.03;;;-1.25;65.07
56074;BME280;41950;55.840;37.442;2023-02-11T12:22:11;99062.91;;;-1.29;65.49
56074;BME280;41950;55.840;37.442;2023-02-11T12:25:03;99063.84;;;-1.24;65.08
56074;BME280;41950;55.840;37.442;2023-02-11T12:28:02;99063.00;;;-1.23;65.41
56074;BME280;41950;55.840;37.442;2023-02-11T12:30:40;99060.47;;;-1.23;65.28
56074;BME280;41950;55.840;37.442;2023-02-11T12:33:39;99032.22;;;-1.37;65.29
56074;BME280;41950;55.840;37.442;2023-02-11T12:36:33;99045.03;;;-1.32;65.54
56074;BME280;41950;55.840;37.442;2023-02-11T12:56:14;98995.41;;;-1.52;67.04
56074;BME280;41950;55.840;37.442;2023-02-11T12:58:43;98974.91;;;-1.60;67.13
56074;BME280;41950;55.840;37.442;2023-02-11T13:01:28;98976.72;;;-1.54;67.43
56074;BME280;41950;55.840;37.442;2023-02-11T13:04:19;98978.44;;;-1.53;67.45
56074;BME280;41950;55.840;37.442;2023-02-11T13:06:52;98944.16;;;-1.71;67.73
56074;BME280;41950;55.840;37.442;2023-02-11T13:09:27;98957.13;;;-1.59;68.02
56074;BME280;41950;55.840;37.442;2023-02-11T13:11:57;98945.22;;;-1.60;68.23
56074;BME280;41950;55.840;37.442;2023-02-11T13:14:44;98955.41;;;-1.60;68.52
56074;BME280;41950;55.840;37.442;2023-02-11T13:17:19;98925.44;;;-1.74;68.44
56074;BME280;41950;55.840;37.442;2023-02-11T13:19:50;98929.16;;;-1.57;68.74
56074;BME280;41950;55.840;37.442;2023-02-11T13:25:13;98913.03;;;-1.58;69.15
56074;BME280;41950;55.840;37.442;2023-02-11T13:40:41;98876.31;;;-1.70;73.38
56074;BME280;41950;55.840;37.442;2023-02-11T13:43:21;98878.94;;;-1.66;73.67
56074;BME280;41950;55.840;37.442;2023-02-11T13:45:49;98865.28;;;-1.71;74.21
56074;BME280;41950;55.840;37.442;2023-02-11T13:48:22;98862.75;;;-1.71;74.43
56074;BME280;41950;55.840;37.442;2023-02-11T13:50:57;98862.75;;;-1.71;74.42
56074;BME280;41950;55.840;37.442;2023-02-11T13:53:24;98845.66;;;-1.79;76.17
56074;BME280;41950;55.840;37.442;2023-02-11T13:56:03;98833.56;;;-1.91;77.66
56074;BME280;41950;55.840;37.442;2023-02-11T14:00:54;98820.84;;;-1.91;79.46
56074;BME280;41950;55.840;37.442;2023-02-11T14:04:04;98820.00;;;-1.92;80.22
56074;BME280;41950;55.840;37.442;2023-02-11T14:06:33;98782.56;;;-1.99;81.06
56074;BME280;41950;55.840;37.442;2023-02-11T14:11:47;98797.06;;;-1.93;81.58
56074;BME280;41950;55.840;37.442;2023-02-11T14:14:30;98782.59;;;-1.96;81.61
56074;BME280;41950;55.840;37.442;2023-02-11T14:22:11;98766.31;;;-2.07;83.04
56074;BME280;41950;55.840;37.442;2023-02-11T14:24:39;98756.91;;;-2.12;83.46
56074;BME280;41950;55.840;37.442;2023-02-11T14:36:04;98732.31;;;-2.13;83.97
56074;BME280;41950;55.840;37.442;2023-02-11T14:41:42;98705.97;;;-2.17;84.99
56074;BME280;41950;55.840;37.442;2023-02-11T14:44:16;98705.16;;;-2.16;85.07
56074;BME280;41950;55.840;37.442;2023-02-11T14:46:45;98692.41;;;-2.19;85.11
56074;BME280;41950;55.840;37.442;2023-02-11T14:49:23;98672.69;;;-2.31;84.44
56074;BME280;41950;55.840;37.442;2023-02-11T14:52:05;98664.38;;;-2.21;84.87
56074;BME280;41950;55.840;37.442;2023-02-11T14:54:32;98676.19;;;-2.23;84.94
56074;BME280;41950;55.840;37.442;2023-02-11T14:57:15;98673.78;;;-2.18;85.40
56074;BME280;41950;55.840;37.442;2023-02-11T14:59:56;98622.41;;;-2.47;85.65
56074;BME280;41950;55.840;37.442;2023-02-11T15:02:36;98588.25;;;-2.66;85.86
56074;BME280;41950;55.840;37.442;2023-02-11T15:05:24;98669.59;;;-2.14;85.90
56074;BME280;41950;55.840;37.442;2023-02-11T15:07:56;98658.53;;;-2.16;85.97
56074;BME280;41950;55.840;37.442;2023-02-11T15:10:40;98645.72;;;-2.21;86.46
56074;BME280;41950;55.840;37.442;2023-02-11T15:13:07;98649.97;;;-2.22;86.59
56074;BME280;41950;55.840;37.442;2023-02-11T15:15:35;98651.78;;;-2.16;86.85
56074;BME280;41950;55.840;37.442;2023-02-11T15:18:05;98633.03;;;-2.20;87.11
56074;BME280;41950;55.840;37.442;2023-02-11T15:20:32;98642.56;;;-2.09;87.10
56074;BME280;41950;55.840;37.442;2023-02-11T15:23:05;98637.56;;;-2.03;87.17